Time;durP1;ratioP1;P1;durP2;ratioP2;P2;SDS_P1;SDS_P2;PMS_P1;PMS_P2;Temp;Humidity;BMP_temperature;BMP_pressure;BME280_temperature;BME280_humidity;BME280_pressure;Samples;Min_cycle;Max_cycle;Signal;HPM_P1;HPM_P2
2021/09/22 00:02:14;;;;;;;44.53;26.27;;;;;;;;;;4333268;33;20171;-79
2021/09/22 00:04:40;;;;;;;41.15;26.70;;;;;;;;;;4346831;33;20136;-79
2021/09/22 00:07:05;;;;;;;45.83;27.42;;;;;;;;;;4346507;33;20139;-78
2021/09/22 00:09:36;;;;;;;44.90;27.60;;;;;;;;;;4346155;33;20484;-79
2021/09/22 00:12:02;;;;;;;43.50;27.20;;;;;;;;;;4346771;33;20139;-79
2021/09/22 00:14:27;;;;;;;42.62;25.27;;;;;;;;;;4345638;33;20147;-79
2021/09/22 00:16:52;;;;;;;41.33;26.98;;;;;;;;;;4345658;33;20139;-79
2021/09/22 00:19:17;;;;;;;46.65;26.92;;;;;;;;;;4345931;33;20159;-79
2021/09/22 00:21:43;;;;;;;46.10;26.65;;;;;;;;;;4332869;33;20163;-79
2021/09/22 00:24:08;;;;;;;41.50;27.23;;;;;;;;;;4345612;33;20242;-79
2021/09/22 00:26:33;;;;;;;51.63;29.63;;;;;;;;;;4332001;33;20163;-79
2021/09/22 00:28:59;;;;;;;44.85;27.10;;;;;;;;;;4346101;33;20166;-79
2021/09/22 00:31:24;;;;;;;46.00;27.05;;;;;;;;;;4346206;33;20131;-79
2021/09/22 00:33:49;;;;;;;42.88;26.50;;;;;;;;;;4345931;33;20138;-79
2021/09/22 00:36:15;;;;;;;45.42;27.35;;;;;;;;;;4345991;33;20194;-79
2021/09/22 00:38:42;;;;;;;37.53;25.52;;;;;;;;;;4331954;33;20167;-79
2021/09/22 00:41:08;;;;;;;46.45;27.37;;;;;;;;;;4345898;33;20147;-79
2021/09/22 00:43:33;;;;;;;39.55;24.75;;;;;;;;;;4345352;33;20194;-79
2021/09/22 00:46:04;;;;;;;43.60;24.95;;;;;;;;;;4345895;33;20158;-79
2021/09/22 00:48:31;;;;;;;41.55;25.15;;;;;;;;;;4345738;33;20132;-79
2021/09/22 00:50:56;;;;;;;44.22;25.33;;;;;;;;;;4345627;33;20250;-79
2021/09/22 00:53:24;;;;;;;43.35;25.35;;;;;;;;;;4345791;33;20479;-79
2021/09/22 00:55:52;;;;;;;42.88;25.48;;;;;;;;;;4344419;33;20581;-79
2021/09/22 00:58:19;;;;;;;44.15;25.45;;;;;;;;;;4345236;33;20206;-79
2021/09/22 01:00:44;;;;;;;39.25;24.42;;;;;;;;;;4345989;33;20159;-79
2021/09/22 01:03:12;;;;;;;42.67;24.63;;;;;;;;;;4345942;33;20131;-79
2021/09/22 01:05:41;;;;;;;50.15;26.98;;;;;;;;;;4345480;33;20173;-79
2021/09/22 01:08:09;;;;;;;48.50;26.02;;;;;;;;;;4345888;33;20135;-79
2021/09/22 01:10:38;;;;;;;48.50;26.05;;;;;;;;;;4345144;33;20143;-79
2021/09/22 01:13:07;;;;;;;52.15;28.98;;;;;;;;;;4348213;33;20143;-79
2021/09/22 01:15:37;;;;;;;51.55;29.65;;;;;;;;;;4350303;33;20174;-79
2021/09/22 01:18:03;;;;;;;50.75;27.67;;;;;;;;;;4350479;33;20271;-79
2021/09/22 01:20:30;;;;;;;51.75;29.17;;;;;;;;;;4350339;33;20174;-79
2021/09/22 01:22:56;;;;;;;52.67;29.15;;;;;;;;;;4350179;33;20209;-79
2021/09/22 01:25:22;;;;;;;61.08;32.67;;;;;;;;;;4337055;33;20162;-79
2021/09/22 01:27:47;;;;;;;65.00;33.10;;;;;;;;;;4336813;33;20163;-79
2021/09/22 01:30:12;;;;;;;62.08;33.33;;;;;;;;;;4350485;33;20143;-79
2021/09/22 01:32:46;;;;;;;65.15;32.50;;;;;;;;;;4350267;33;20599;-79
2021/09/22 01:35:11;;;;;;;63.20;31.92;;;;;;;;;;4350892;33;20140;-79
2021/09/22 01:37:37;;;;;;;61.97;32.78;;;;;;;;;;4336333;33;20163;-79
2021/09/22 01:40:06;;;;;;;64.68;33.65;;;;;;;;;;4350076;33;20237;-79
2021/09/22 01:42:39;;;;;;;75.10;36.55;;;;;;;;;;4336381;33;20168;-79
2021/09/22 01:45:08;;;;;;;73.72;37.03;;;;;;;;;;4350149;33;20139;-79
2021/09/22 01:47:34;;;;;;;68.75;37.03;;;;;;;;;;4350428;33;20140;-79
2021/09/22 01:50:00;;;;;;;65.90;35.92;;;;;;;;;;4336706;33;20176;-79
2021/09/22 01:52:31;;;;;;;65.47;35.75;;;;;;;;;;4350259;33;20174;-79
2021/09/22 01:54:57;;;;;;;67.10;35.38;;;;;;;;;;4350410;33;20186;-80
2021/09/22 01:57:22;;;;;;;63.00;33.55;;;;;;;;;;4349884;33;20202;-80
2021/09/22 01:59:47;;;;;;;75.12;38.78;;;;;;;;;;4350334;33;20144;-80
2021/09/22 02:02:13;;;;;;;75.72;38.28;;;;;;;;;;4350132;33;20175;-80
2021/09/22 02:04:38;;;;;;;67.05;35.70;;;;;;;;;;4350364;33;20131;-80
2021/09/22 02:07:04;;;;;;;69.50;37.28;;;;;;;;;;4350154;33;20140;-80
2021/09/22 02:09:29;;;;;;;69.90;36.35;;;;;;;;;;4349821;33;20141;-80
2021/09/22 02:11:57;;;;;;;73.70;36.92;;;;;;;;;;4336597;33;20163;-81
2021/09/22 02:14:22;;;;;;;67.50;36.42;;;;;;;;;;4336121;33;20206;-81
2021/09/22 02:16:47;;;;;;;66.65;35.00;;;;;;;;;;4349931;33;20226;-81
2021/09/22 02:19:13;;;;;;;61.60;34.83;;;;;;;;;;4350284;33;20158;-80
2021/09/22 02:21:40;;;;;;;80.22;37.75;;;;;;;;;;4336495;33;20179;-80
2021/09/22 02:24:16;;;;;;;81.70;40.00;;;;;;;;;;4348054;33;20206;-81
2021/09/22 02:26:44;;;;;;;75.90;37.78;;;;;;;;;;4348261;33;20132;-80
2021/09/22 02:29:12;;;;;;;91.00;41.97;;;;;;;;;;4334069;33;20442;-81
2021/09/22 02:31:40;;;;;;;94.65;42.83;;;;;;;;;;4347500;33;20140;-80
2021/09/22 02:34:08;;;;;;;77.62;38.53;;;;;;;;;;4347777;33;20135;-80
2021/09/22 02:36:33;;;;;;;82.12;42.20;;;;;;;;;;4347368;33;20135;-80
2021/09/22 02:39:12;;;;;;;89.53;41.20;;;;;;;;;;4347480;33;20507;-80
2021/09/22 02:41:40;;;;;;;79.47;38.22;;;;;;;;;;4334024;33;20167;-81
2021/09/22 02:44:06;;;;;;;84.97;39.08;;;;;;;;;;4348097;33;20135;-81
2021/09/22 02:46:31;;;;;;;75.95;39.80;;;;;;;;;;4347103;33;20154;-80
2021/09/22 02:49:02;;;;;;;83.55;38.80;;;;;;;;;;4333607;33;20569;-80
2021/09/22 02:54:40;;;;;;;78.68;39.47;;;;;;;;;;4332247;33;20489;-81
2021/09/22 02:57:05;;;;;;;78.05;38.55;;;;;;;;;;4346744;33;20585;-81
2021/09/22 02:59:31;;;;;;;85.85;40.03;;;;;;;;;;4347224;33;20144;-81
2021/09/22 03:01:56;;;;;;;89.55;41.05;;;;;;;;;;4347140;33;20132;-81
2021/09/22 03:04:21;;;;;;;81.32;39.22;;;;;;;;;;4333485;33;20681;-80
2021/09/22 03:06:47;;;;;;;89.40;41.20;;;;;;;;;;4346780;33;20498;-79
2021/09/22 03:09:12;;;;;;;83.07;39.63;;;;;;;;;;4346674;33;20163;-79
2021/09/22 03:11:37;;;;;;;80.82;36.20;;;;;;;;;;4347372;33;20123;-79
2021/09/22 03:14:03;;;;;;;90.30;40.72;;;;;;;;;;4333468;33;20233;-79
2021/09/22 03:16:32;;;;;;;89.13;40.12;;;;;;;;;;4346930;33;20136;-79
2021/09/22 03:18:58;;;;;;;96.53;41.00;;;;;;;;;;4346907;33;20127;-79
2021/09/22 03:21:23;;;;;;;106.35;45.53;;;;;;;;;;4347463;33;20151;-79
2021/09/22 03:23:48;;;;;;;86.57;39.92;;;;;;;;;;4333172;33;20569;-79
2021/09/22 03:26:14;;;;;;;91.78;41.45;;;;;;;;;;4346893;33;20151;-79
2021/09/22 03:28:45;;;;;;;91.80;44.10;;;;;;;;;;4332975;33;20569;-79
2021/09/22 03:31:10;;;;;;;106.18;45.78;;;;;;;;;;4333091;33;20201;-79
2021/09/22 03:33:36;;;;;;;97.40;43.35;;;;;;;;;;4333213;33;20573;-81
2021/09/22 03:36:01;;;;;;;108.22;43.78;;;;;;;;;;4346517;33;20545;-79
2021/09/22 03:38:26;;;;;;;105.28;45.05;;;;;;;;;;4333288;33;20535;-79
2021/09/22 03:40:53;;;;;;;100.30;42.30;;;;;;;;;;4346072;33;20245;-78
2021/09/22 03:43:18;;;;;;;106.53;42.60;;;;;;;;;;4346501;33;20197;-80
2021/09/22 03:45:44;;;;;;;93.37;40.35;;;;;;;;;;4346495;33;20624;-79
2021/09/22 03:48:09;;;;;;;112.07;43.15;;;;;;;;;;4346604;33;20556;-79
2021/09/22 03:50:42;;;;;;;108.05;44.35;;;;;;;;;;4347512;33;20132;-80
2021/09/22 03:53:15;;;;;;;114.97;44.22;;;;;;;;;;4346575;33;20158;-79
2021/09/22 03:55:41;;;;;;;108.43;43.20;;;;;;;;;;4346697;33;20542;-79
2021/09/22 03:58:06;;;;;;;106.68;41.67;;;;;;;;;;4345838;33;20151;-79
2021/09/22 04:00:41;;;;;;;113.97;42.65;;;;;;;;;;4345940;33;20619;-78
2021/09/22 04:03:07;;;;;;;110.28;42.45;;;;;;;;;;4346300;33;20212;-79
2021/09/22 04:05:32;;;;;;;116.47;43.65;;;;;;;;;;4346603;33;20155;-79
2021/09/22 04:08:00;;;;;;;111.45;44.40;;;;;;;;;;4346103;33;20620;-80
2021/09/22 04:10:26;;;;;;;113.07;45.42;;;;;;;;;;4346291;33;20469;-80
2021/09/22 04:12:54;;;;;;;114.15;42.83;;;;;;;;;;4346376;33;20151;-80
2021/09/22 04:15:22;;;;;;;113.03;42.78;;;;;;;;;;4346017;33;20159;-79
2021/09/22 04:17:47;;;;;;;126.32;47.78;;;;;;;;;;4345824;33;20250;-79
2021/09/22 04:20:12;;;;;;;133.20;46.80;;;;;;;;;;4345550;33;20535;-80
2021/09/22 04:22:39;;;;;;;127.85;44.63;;;;;;;;;;4346046;33;20131;-78
2021/09/22 04:25:05;;;;;;;128.38;45.85;;;;;;;;;;4345942;33;20128;-79
2021/09/22 04:27:30;;;;;;;135.90;46.30;;;;;;;;;;4346234;33;20234;-79
2021/09/22 04:29:56;;;;;;;120.45;43.40;;;;;;;;;;4332294;33;20246;-80
2021/09/22 04:32:21;;;;;;;115.47;45.38;;;;;;;;;;4332255;33;20159;-80
2021/09/22 04:34:46;;;;;;;131.75;47.88;;;;;;;;;;4332236;33;20152;-80
2021/09/22 04:37:11;;;;;;;131.35;47.55;;;;;;;;;;4345968;33;20163;-80
2021/09/22 04:39:37;;;;;;;145.50;48.53;;;;;;;;;;4332447;33;20589;-78
2021/09/22 04:42:13;;;;;;;138.82;49.42;;;;;;;;;;4345947;33;20166;-80
2021/09/22 04:44:41;;;;;;;133.00;48.35;;;;;;;;;;4345844;33;20142;-79
2021/09/22 04:47:24;;;;;;;148.27;49.38;;;;;;;;;;4331473;33;20187;-80
2021/09/22 04:49:49;;;;;;;121.60;42.65;;;;;;;;;;4346019;33;20537;-80
2021/09/22 04:52:18;;;;;;;122.93;44.40;;;;;;;;;;4339493;33;20162;-79
2021/09/22 04:55:04;;;;;;;128.68;45.12;;;;;;;;;;4332137;33;20199;-80
2021/09/22 04:57:30;;;;;;;138.65;45.20;;;;;;;;;;4345272;33;20500;-80
2021/09/22 05:00:05;;;;;;;125.12;43.95;;;;;;;;;;4345604;33;20170;-79
2021/09/22 05:02:30;;;;;;;132.02;45.85;;;;;;;;;;4345480;33;20238;-75
2021/09/22 05:04:56;;;;;;;138.77;45.90;;;;;;;;;;4345162;33;20187;-78
2021/09/22 05:07:27;;;;;;;132.60;43.22;;;;;;;;;;4331989;33;20671;-79
2021/09/22 05:09:53;;;;;;;143.93;46.00;;;;;;;;;;4331756;33;20628;-79
2021/09/22 05:15:33;;;;;;;131.85;42.67;;;;;;;;;;4341335;33;20798;-79
2021/09/22 05:17:58;;;;;;;129.93;45.63;;;;;;;;;;4332027;33;20182;-80
2021/09/22 05:20:38;;;;;;;124.13;43.20;;;;;;;;;;4346115;33;20419;-78
2021/09/22 05:23:03;;;;;;;139.62;46.92;;;;;;;;;;4345342;33;20254;-79
2021/09/22 05:25:55;;;;;;;139.70;46.75;;;;;;;;;;4344940;33;20139;-80
2021/09/22 05:28:20;;;;;;;131.00;45.88;;;;;;;;;;4284925;33;20153;-79
2021/09/22 05:30:54;;;;;;;129.15;45.60;;;;;;;;;;4338649;33;20193;-80
2021/09/22 05:33:19;;;;;;;130.60;44.83;;;;;;;;;;4345189;33;20158;-80
2021/09/22 05:35:47;;;;;;;135.10;46.17;;;;;;;;;;4344873;33;20584;-81
2021/09/22 05:38:13;;;;;;;131.18;44.17;;;;;;;;;;4331158;33;20281;-80
2021/09/22 05:40:49;;;;;;;127.40;43.83;;;;;;;;;;4345186;33;20178;-80
2021/09/22 05:43:14;;;;;;;122.57;43.25;;;;;;;;;;4345112;33;20486;-78
2021/09/22 05:45:40;;;;;;;132.32;44.75;;;;;;;;;;4345245;33;20139;-79
2021/09/22 05:48:50;;;;;;;121.75;44.63;;;;;;;;;;4331387;33;20233;-80
2021/09/22 05:50:53;;;;;;;116.55;42.55;;;;;;;;;;4332331;33;20175;-79
2021/09/22 05:53:21;;;;;;;115.00;43.25;;;;;;;;;;4344409;33;20185;-80
2021/09/22 05:56:07;;;;;;;119.40;42.38;;;;;;;;;;4344783;33;20132;-79
2021/09/22 05:58:34;;;;;;;123.50;43.92;;;;;;;;;;4345062;33;20179;-79
2021/09/22 06:01:10;;;;;;;124.70;42.90;;;;;;;;;;4347936;33;20199;-80
2021/09/22 06:03:38;;;;;;;120.85;43.35;;;;;;;;;;4347860;33;20119;-80
2021/09/22 06:06:21;;;;;;;124.95;44.47;;;;;;;;;;4348307;33;20214;-80
2021/09/22 06:08:47;;;;;;;142.37;46.17;;;;;;;;;;4348489;33;20166;-79
2021/09/22 06:11:14;;;;;;;130.43;45.15;;;;;;;;;;4347442;33;20600;-80
2021/09/22 06:13:45;;;;;;;121.47;42.35;;;;;;;;;;4347314;33;20226;-80
2021/09/22 06:16:13;;;;;;;117.80;44.15;;;;;;;;;;4347609;33;20387;-78
2021/09/22 06:18:38;;;;;;;114.62;43.05;;;;;;;;;;4347426;33;20154;-78
2021/09/22 06:21:04;;;;;;;123.00;44.53;;;;;;;;;;4333886;33;20218;-78
2021/09/22 06:23:29;;;;;;;109.28;39.63;;;;;;;;;;4333461;33;20155;-78
2021/09/22 06:25:55;;;;;;;112.95;41.35;;;;;;;;;;4333820;33;20155;-78
2021/09/22 06:28:20;;;;;;;108.32;40.50;;;;;;;;;;4334559;33;20163;-77
2021/09/22 06:30:48;;;;;;;119.18;42.88;;;;;;;;;;4348436;33;20139;-77
2021/09/22 06:33:13;;;;;;;107.80;40.08;;;;;;;;;;4347907;33;20155;-78
2021/09/22 06:35:46;;;;;;;119.75;44.10;;;;;;;;;;4346554;33;20442;-79
2021/09/22 06:38:11;;;;;;;105.63;42.03;;;;;;;;;;4347293;33;20166;-78
2021/09/22 06:40:37;;;;;;;111.20;40.40;;;;;;;;;;4347347;33;20520;-78
2021/09/22 06:43:03;;;;;;;95.65;37.47;;;;;;;;;;4347356;33;20178;-78
2021/09/22 06:45:28;;;;;;;100.85;41.05;;;;;;;;;;4333642;33;20136;-76
2021/09/22 06:47:53;;;;;;;98.25;41.50;;;;;;;;;;4347629;33;20189;-78
2021/09/22 06:50:22;;;;;;;92.10;38.45;;;;;;;;;;4347164;33;20592;-78
2021/09/22 06:52:47;;;;;;;93.45;39.63;;;;;;;;;;4347269;33;20135;-78
2021/09/22 06:55:13;;;;;;;88.40;37.70;;;;;;;;;;4347080;33;20532;-78
2021/09/22 06:57:42;;;;;;;96.30;39.35;;;;;;;;;;4347076;33;20218;-77
2021/09/22 07:00:09;;;;;;;91.80;37.72;;;;;;;;;;4347025;33;20185;-77
2021/09/22 07:02:35;;;;;;;88.03;38.95;;;;;;;;;;4347547;33;20136;-79
2021/09/22 07:05:00;;;;;;;79.85;36.72;;;;;;;;;;4347065;33;20166;-75
2021/09/22 07:07:25;;;;;;;83.83;35.30;;;;;;;;;;4347146;33;20157;-77
2021/09/22 07:09:51;;;;;;;82.20;35.88;;;;;;;;;;4346464;33;20316;-79
2021/09/22 07:12:16;;;;;;;83.97;38.38;;;;;;;;;;4346651;33;20218;-79
2021/09/22 07:14:41;;;;;;;84.37;37.80;;;;;;;;;;4346371;33;20167;-78
2021/09/22 07:17:06;;;;;;;81.50;35.88;;;;;;;;;;4347835;33;20127;-79
2021/09/22 07:19:32;;;;;;;67.53;33.03;;;;;;;;;;4347216;33;20163;-77
2021/09/22 07:21:57;;;;;;;68.97;33.97;;;;;;;;;;4347814;33;20123;-76
2021/09/22 07:24:22;;;;;;;70.25;33.45;;;;;;;;;;4346744;33;20163;-78
2021/09/22 07:26:53;;;;;;;75.60;35.53;;;;;;;;;;4346885;33;20151;-79
2021/09/22 07:29:18;;;;;;;68.12;35.67;;;;;;;;;;4346874;33;20166;-78
2021/09/22 07:31:43;;;;;;;61.22;31.87;;;;;;;;;;4346664;33;20132;-78
2021/09/22 07:34:08;;;;;;;56.28;31.30;;;;;;;;;;4346616;33;20127;-79
2021/09/22 07:36:35;;;;;;;57.72;31.58;;;;;;;;;;4346203;33;20144;-78
2021/09/22 07:39:00;;;;;;;65.32;31.12;;;;;;;;;;4346122;33;20140;-79
2021/09/22 07:41:26;;;;;;;53.05;29.92;;;;;;;;;;4346159;33;20158;-77
2021/09/22 07:43:51;;;;;;;48.85;28.17;;;;;;;;;;4346125;33;20132;-78
2021/09/22 07:46:16;;;;;;;51.33;27.55;;;;;;;;;;4346857;33;20511;-78
2021/09/22 07:48:44;;;;;;;54.90;29.60;;;;;;;;;;4347008;33;20982;-79
2021/09/22 07:51:10;;;;;;;45.58;26.73;;;;;;;;;;4347107;33;20162;-80
2021/09/22 07:53:35;;;;;;;48.60;28.75;;;;;;;;;;4346366;33;20135;-79
2021/09/22 07:56:01;;;;;;;48.70;27.05;;;;;;;;;;4346029;33;20128;-78
2021/09/22 07:58:35;;;;;;;45.20;26.87;;;;;;;;;;4345741;33;20179;-79
2021/09/22 08:01:03;;;;;;;46.88;27.37;;;;;;;;;;4346611;33;20138;-78
2021/09/22 08:03:29;;;;;;;42.17;25.05;;;;;;;;;;4345823;33;20132;-78
2021/09/22 08:06:04;;;;;;;43.72;24.42;;;;;;;;;;4346768;33;20170;-78
2021/09/22 08:08:36;;;;;;;46.40;26.17;;;;;;;;;;4346392;32;20186;-79
2021/09/22 08:11:02;;;;;;;40.85;25.30;;;;;;;;;;4346224;33;20136;-78
2021/09/22 08:13:27;;;;;;;41.00;24.33;;;;;;;;;;4332491;33;20225;-78
2021/09/22 08:15:52;;;;;;;38.80;23.25;;;;;;;;;;4346297;33;20163;-79
2021/09/22 08:18:18;;;;;;;38.75;22.75;;;;;;;;;;4346405;33;20143;-78
2021/09/22 08:20:43;;;;;;;38.17;23.75;;;;;;;;;;4345974;33;20139;-78
2021/09/22 08:23:08;;;;;;;39.13;23.80;;;;;;;;;;4345296;33;20128;-80
2021/09/22 08:25:33;;;;;;;35.75;22.20;;;;;;;;;;4346469;33;20124;-78
2021/09/22 08:27:59;;;;;;;41.15;23.75;;;;;;;;;;4346255;33;20227;-78
2021/09/22 08:30:24;;;;;;;34.95;21.98;;;;;;;;;;4345536;33;20165;-79
2021/09/22 08:32:50;;;;;;;39.00;21.60;;;;;;;;;;4332460;33;20198;-78
2021/09/22 08:35:15;;;;;;;34.42;21.92;;;;;;;;;;4345802;33;20123;-78
2021/09/22 08:37:40;;;;;;;35.22;22.52;;;;;;;;;;4346150;33;20448;-78
2021/09/22 08:40:07;;;;;;;37.58;20.83;;;;;;;;;;4332088;33;20333;-79
2021/09/22 08:42:32;;;;;;;36.10;22.10;;;;;;;;;;4345397;33;20305;-79
2021/09/22 08:44:58;;;;;;;33.80;20.12;;;;;;;;;;4345734;33;20139;-78
2021/09/22 08:47:23;;;;;;;31.45;20.55;;;;;;;;;;4345424;33;20245;-79
2021/09/22 08:49:50;;;;;;;33.92;20.20;;;;;;;;;;4344942;33;20132;-80
2021/09/22 08:52:25;;;;;;;33.63;20.88;;;;;;;;;;4345787;33;20123;-79
2021/09/22 08:54:50;;;;;;;30.17;20.02;;;;;;;;;;4345703;33;20151;-79
2021/09/22 08:57:16;;;;;;;33.63;20.75;;;;;;;;;;4344653;33;20174;-78
2021/09/22 08:59:41;;;;;;;31.15;19.77;;;;;;;;;;4331751;33;20170;-79
2021/09/22 09:02:11;;;;;;;35.42;20.08;;;;;;;;;;4344801;33;20228;-78
2021/09/22 09:04:43;;;;;;;28.77;18.00;;;;;;;;;;4338743;33;20143;-79
2021/09/22 09:10:17;;;;;;;26.60;15.88;;;;;;;;;;4319845;33;20281;-78
2021/09/22 09:12:42;;;;;;;31.33;18.40;;;;;;;;;;4344980;33;20293;-77
2021/09/22 09:15:14;;;;;;;27.55;17.52;;;;;;;;;;4345647;33;20128;-78
2021/09/22 09:17:44;;;;;;;29.10;16.73;;;;;;;;;;4344719;33;20572;-78
2021/09/22 09:20:18;;;;;;;23.10;14.87;;;;;;;;;;4331855;33;20193;-79
2021/09/22 09:22:54;;;;;;;26.23;15.63;;;;;;;;;;4345350;33;20300;-78
2021/09/22 09:25:24;;;;;;;26.30;16.12;;;;;;;;;;4345521;33;20530;-78
2021/09/22 09:27:49;;;;;;;27.95;16.50;;;;;;;;;;4344591;33;20127;-79
2021/09/22 09:30:18;;;;;;;24.77;16.20;;;;;;;;;;4344142;33;20170;-79
2021/09/22 09:32:43;;;;;;;22.60;14.18;;;;;;;;;;4344834;33;20176;-78
2021/09/22 09:35:14;;;;;;;27.75;16.70;;;;;;;;;;4348191;33;20131;-79
2021/09/22 09:37:43;;;;;;;22.90;14.45;;;;;;;;;;4346024;33;20132;-79
2021/09/22 09:40:14;;;;;;;24.45;13.90;;;;;;;;;;4343675;33;20139;-80
2021/09/22 09:42:40;;;;;;;26.33;14.43;;;;;;;;;;4333199;33;20182;-78
2021/09/22 09:45:05;;;;;;;21.58;15.57;;;;;;;;;;4337751;33;20143;-78
2021/09/22 09:47:31;;;;;;;28.15;15.10;;;;;;;;;;4348373;33;20158;-78
2021/09/22 09:49:59;;;;;;;20.77;13.43;;;;;;;;;;4347584;33;20206;-80
2021/09/22 09:52:27;;;;;;;20.58;13.10;;;;;;;;;;4334294;33;20159;-80
2021/09/22 09:54:52;;;;;;;22.27;13.43;;;;;;;;;;4348144;33;20214;-78
2021/09/22 09:57:21;;;;;;;20.62;12.50;;;;;;;;;;4343659;33;20198;-78
2021/09/22 09:59:50;;;;;;;22.27;13.00;;;;;;;;;;4346236;33;20143;-77
2021/09/22 10:02:28;;;;;;;20.45;13.40;;;;;;;;;;4340955;33;20132;-79
2021/09/22 10:04:56;;;;;;;21.20;12.70;;;;;;;;;;4341009;33;20175;-80
2021/09/22 10:07:22;;;;;;;21.85;13.65;;;;;;;;;;4347379;33;20198;-78
2021/09/22 10:09:56;;;;;;;22.13;13.68;;;;;;;;;;4347201;33;20160;-79
2021/09/22 10:12:25;;;;;;;23.10;13.62;;;;;;;;;;4347749;33;20150;-78
2021/09/22 10:14:58;;;;;;;21.17;12.15;;;;;;;;;;4346988;33;20174;-79
2021/09/22 10:17:24;;;;;;;18.52;11.98;;;;;;;;;;4338429;33;20186;-78
2021/09/22 10:19:51;;;;;;;19.98;11.75;;;;;;;;;;4331952;33;20588;-78
2021/09/22 10:22:17;;;;;;;19.37;12.20;;;;;;;;;;4327159;33;20158;-78
2021/09/22 10:24:46;;;;;;;20.62;12.35;;;;;;;;;;4332600;33;20167;-80
2021/09/22 10:27:14;;;;;;;19.23;11.80;;;;;;;;;;4318771;33;20493;-78
2021/09/22 10:30:15;;;;;;;17.35;10.90;;;;;;;;;;4336631;33;20155;-79
2021/09/22 10:32:45;;;;;;;22.92;12.57;;;;;;;;;;4337109;33;20247;-79
2021/09/22 10:35:25;;;;;;;18.83;11.18;;;;;;;;;;4347701;33;20607;-79
2021/09/22 10:37:57;;;;;;;17.00;11.68;;;;;;;;;;4348523;33;20473;-79
2021/09/22 10:40:37;;;;;;;18.20;11.43;;;;;;;;;;4348827;33;20214;-79
2021/09/22 10:43:14;;;;;;;17.30;11.25;;;;;;;;;;4348816;33;20177;-78
2021/09/22 10:45:46;;;;;;;17.12;11.27;;;;;;;;;;4347788;33;20127;-80
2021/09/22 10:48:22;;;;;;;18.08;11.43;;;;;;;;;;4347372;33;20143;-79
2021/09/22 10:50:52;;;;;;;18.77;11.10;;;;;;;;;;4351153;33;20131;-80
2021/09/22 10:53:36;;;;;;;19.23;11.48;;;;;;;;;;4346833;33;20159;-79
2021/09/22 10:56:06;;;;;;;15.13;10.40;;;;;;;;;;4334307;33;20187;-79
2021/09/22 10:58:32;;;;;;;18.33;11.75;;;;;;;;;;4348863;33;20148;-81
2021/09/22 11:01:00;;;;;;;17.55;11.27;;;;;;;;;;4348409;33;20136;-80
2021/09/22 11:03:44;;;;;;;20.95;11.77;;;;;;;;;;4334986;33;20558;-79
2021/09/22 11:06:28;;;;;;;19.48;11.45;;;;;;;;;;4346251;33;20227;-80
2021/09/22 11:09:04;;;;;;;18.50;10.10;;;;;;;;;;4347463;33;20176;-79
2021/09/22 11:11:48;;;;;;;15.63;10.32;;;;;;;;;;4346782;33;20139;-80
2021/09/22 11:14:48;;;;;;;16.25;10.77;;;;;;;;;;4347298;33;20197;-80
2021/09/22 11:17:23;;;;;;;15.70;9.90;;;;;;;;;;4346428;33;20175;-78
2021/09/22 11:19:51;;;;;;;14.93;10.07;;;;;;;;;;4346647;33;20162;-80
2021/09/22 11:22:38;;;;;;;14.55;9.40;;;;;;;;;;4342953;33;20194;-80
2021/09/22 11:25:09;;;;;;;14.95;9.45;;;;;;;;;;4265344;33;20263;-81
2021/09/22 11:27:45;;;;;;;14.07;9.05;;;;;;;;;;4271887;33;20145;-79
2021/09/22 11:30:29;;;;;;;12.63;8.48;;;;;;;;;;4274583;33;20556;-80
2021/09/22 11:33:00;;;;;;;14.35;9.23;;;;;;;;;;4272671;33;20163;-79
2021/09/22 11:35:37;;;;;;;15.15;8.65;;;;;;;;;;4271905;33;20146;-79
2021/09/22 11:38:12;;;;;;;17.08;9.50;;;;;;;;;;4268212;33;20180;-78
2021/09/22 11:43:29;;;;;;;14.15;9.35;;;;;;;;;;4304391;33;20151;-81
2021/09/22 11:46:30;;;;;;;15.57;9.15;;;;;;;;;;4329351;33;20159;-78
2021/09/22 11:49:02;;;;;;;15.63;8.65;;;;;;;;;;4347043;33;20186;-81
2021/09/22 11:51:46;;;;;;;;;;;;;;;;;;;;;
2021/09/22 11:54:20;;;;;;;16.10;9.57;;;;;;;;;;4300584;33;20261;-80
2021/09/22 11:56:59;;;;;;;11.10;8.50;;;;;;;;;;4340675;33;20198;-79
2021/09/22 11:59:44;;;;;;;;;;;;;;;;;;;;;
2021/09/22 12:02:12;;;;;;;13.05;9.40;;;;;;;;;;4346732;33;20170;-80
2021/09/22 12:04:40;;;;;;;17.52;9.10;;;;;;;;;;4346077;33;20163;-81
2021/09/22 12:07:15;;;;;;;13.57;8.73;;;;;;;;;;4345393;33;20198;-79
2021/09/22 12:09:47;;;;;;;11.98;8.55;;;;;;;;;;4340256;33;20160;-79
2021/09/22 12:12:16;;;;;;;11.90;8.18;;;;;;;;;;4345757;33;20671;-80
2021/09/22 12:14:48;;;;;;;11.57;7.60;;;;;;;;;;4346078;33;20151;-81
2021/09/22 12:17:24;;;;;;;13.68;8.68;;;;;;;;;;4345545;33;20243;-80
2021/09/22 12:19:50;;;;;;;27.15;8.82;;;;;;;;;;4345626;33;20171;-80
2021/09/22 12:22:37;;;;;;;13.13;7.60;;;;;;;;;;4345840;33;20186;-80
2021/09/22 12:25:04;;;;;;;11.60;8.40;;;;;;;;;;4344362;33;20181;-79
2021/09/22 12:27:32;;;;;;;13.77;8.40;;;;;;;;;;4345065;33;20223;-80
2021/09/22 12:30:18;;;;;;;11.63;8.02;;;;;;;;;;4345795;33;20195;-80
2021/09/22 12:32:59;;;;;;;11.12;8.40;;;;;;;;;;4346445;33;20213;-80
2021/09/22 12:35:36;;;;;;;12.90;8.68;;;;;;;;;;4345491;33;20155;-81
2021/09/22 12:38:15;;;;;;;15.00;8.80;;;;;;;;;;4332336;33;20183;-80
2021/09/22 12:40:52;;;;;;;12.18;8.05;;;;;;;;;;4344210;33;20226;-81
2021/09/22 12:43:18;;;;;;;10.50;7.50;;;;;;;;;;4342141;33;20155;-80
2021/09/22 12:45:46;;;;;;;10.05;7.50;;;;;;;;;;4321696;33;20649;-79
2021/09/22 12:48:20;;;;;;;14.70;8.30;;;;;;;;;;4336477;33;20151;-80
2021/09/22 12:50:45;;;;;;;10.88;7.93;;;;;;;;;;4335034;33;20156;-81
2021/09/22 12:53:31;;;;;;;11.07;7.20;;;;;;;;;;4322104;33;20482;-80
2021/09/22 12:55:56;;;;;;;10.82;7.30;;;;;;;;;;4335422;33;20171;-80
2021/09/22 12:58:23;;;;;;;11.77;7.70;;;;;;;;;;4344638;33;20455;-80
2021/09/22 13:01:07;;;;;;;12.48;7.78;;;;;;;;;;4345442;33;20577;-82
2021/09/22 13:03:34;;;;;;;11.80;7.25;;;;;;;;;;4345311;33;20227;-82
2021/09/22 13:06:15;;;;;;;10.40;7.07;;;;;;;;;;4345038;32;20148;-81
2021/09/22 13:08:55;;;;;;;11.65;7.25;;;;;;;;;;4344025;33;20148;-81
2021/09/22 13:11:24;;;;;;;10.85;7.15;;;;;;;;;;4336226;33;20566;-81
2021/09/22 13:14:16;;;;;;;12.25;7.57;;;;;;;;;;4331893;33;20236;-82
2021/09/22 13:16:53;;;;;;;11.18;6.35;;;;;;;;;;4340441;33;20194;-81
2021/09/22 13:19:22;;;;;;;9.85;7.03;;;;;;;;;;4336314;33;20169;-82
2021/09/22 13:21:48;;;;;;;11.15;7.55;;;;;;;;;;4331516;33;20201;-81
2021/09/22 13:24:17;;;;;;;11.27;7.93;;;;;;;;;;4345247;33;20605;-81
2021/09/22 13:26:43;;;;;;;11.00;7.25;;;;;;;;;;4345015;33;20147;-82
2021/09/22 13:29:09;;;;;;;8.75;6.85;;;;;;;;;;4320783;33;20176;-81
2021/09/22 13:31:36;;;;;;;10.10;7.60;;;;;;;;;;4331343;33;20515;-82
2021/09/22 13:34:09;;;;;;;11.07;6.85;;;;;;;;;;4345001;33;20161;-81
2021/09/22 13:36:35;;;;;;;12.75;8.02;;;;;;;;;;4345251;33;20131;-82
2021/09/22 13:39:00;;;;;;;11.82;7.85;;;;;;;;;;4344717;33;20207;-81
2021/09/22 13:41:27;;;;;;;11.98;7.12;;;;;;;;;;4329475;33;20167;-81
2021/09/22 13:43:56;;;;;;;9.65;6.55;;;;;;;;;;4330101;33;20208;-82
2021/09/22 13:46:21;;;;;;;14.02;6.80;;;;;;;;;;4329732;33;20166;-81
2021/09/22 13:48:47;;;;;;;10.00;6.37;;;;;;;;;;4330825;33;20469;-81
2021/09/22 13:51:13;;;;;;;11.40;7.37;;;;;;;;;;4340473;33;20214;-81
2021/09/22 13:53:39;;;;;;;10.77;7.60;;;;;;;;;;4339736;33;20397;-80
2021/09/22 13:56:04;;;;;;;9.35;6.90;;;;;;;;;;4322705;33;20171;-82
2021/09/22 13:58:42;;;;;;;11.73;7.78;;;;;;;;;;4337360;33;20179;-80
2021/09/22 14:01:10;;;;;;;10.32;7.25;;;;;;;;;;4337719;33;20167;-82
2021/09/22 14:03:39;;;;;;;12.20;7.20;;;;;;;;;;4344579;33;20431;-81
2021/09/22 14:06:05;;;;;;;12.02;7.55;;;;;;;;;;4344693;33;20159;-81
2021/09/22 14:08:32;;;;;;;10.10;6.80;;;;;;;;;;4344604;33;20152;-80
2021/09/22 14:10:58;;;;;;;10.48;6.10;;;;;;;;;;4344318;33;20148;-84
2021/09/22 14:13:23;;;;;;;9.32;5.75;;;;;;;;;;4339617;33;20604;-82
2021/09/22 14:15:52;;;;;;;8.32;5.68;;;;;;;;;;4339679;33;20151;-82
2021/09/22 14:18:18;;;;;;;11.27;7.10;;;;;;;;;;4343272;33;20156;-83
2021/09/22 14:20:45;;;;;;;9.60;5.72;;;;;;;;;;4346469;33;20200;-82
2021/09/22 14:23:12;;;;;;;11.57;5.68;;;;;;;;;;4347237;33;20155;-82
2021/09/22 14:25:38;;;;;;;12.70;5.97;;;;;;;;;;4347666;33;20139;-83
2021/09/22 14:28:09;;;;;;;13.90;6.47;;;;;;;;;;4347964;33;20233;-82
2021/09/22 14:30:38;;;;;;;9.13;5.57;;;;;;;;;;4345876;33;20148;-83
2021/09/22 14:33:06;;;;;;;7.43;5.60;;;;;;;;;;4347160;33;20593;-83
2021/09/22 14:35:32;;;;;;;10.70;5.75;;;;;;;;;;4347170;33;20201;-81
2021/09/22 14:38:32;;;;;;;8.45;5.97;;;;;;;;;;4346961;33;20148;-82
2021/09/22 14:41:03;;;;;;;7.30;5.40;;;;;;;;;;4346036;33;20175;-83
2021/09/22 14:43:29;;;;;;;10.23;5.40;;;;;;;;;;4347900;33;20154;-82